Time;durP1;ratioP1;P1;durP2;ratioP2;P2;SDS_P1;SDS_P2;PMS_P1;PMS_P2;Temp;Humidity;BMP_temperature;BMP_pressure;BME280_temperature;BME280_humidity;BME280_pressure;Samples;Min_cycle;Max_cycle;Signal;HPM_P1;HPM_P2
2023/12/08 00:00:06;;;;;;;0.80;0.80;;;;;;;5.41;100.00;99414.16;5073090;28;20192;-65
2023/12/08 00:02:33;;;;;;;1.07;1.07;;;;;;;5.36;100.00;99423.53;5072751;28;20204;-65
2023/12/08 00:05:00;;;;;;;0.70;0.70;;;;;;;5.35;100.00;99432.03;5073065;28;20686;-65
2023/12/08 00:07:26;;;;;;;0.80;0.80;;;;;;;5.30;100.00;99437.13;5074406;28;20253;-65
2023/12/08 00:09:53;;;;;;;1.33;1.33;;;;;;;5.32;100.00;99437.13;5073025;28;20672;-66
2023/12/08 00:12:21;;;;;;;1.33;1.33;;;;;;;5.28;100.00;99428.69;5074128;28;20200;-65
2023/12/08 00:14:48;;;;;;;0.60;0.60;;;;;;;5.29;100.00;99428.69;5072039;28;20263;-65
2023/12/08 00:17:14;;;;;;;0.87;0.87;;;;;;;5.30;100.00;99422.72;5072127;28;20265;-65
2023/12/08 00:19:41;;;;;;;0.90;0.90;;;;;;;5.27;100.00;99424.44;5074185;28;20200;-64
2023/12/08 00:22:08;;;;;;;0.50;0.50;;;;;;;5.30;100.00;99432.88;5072750;28;20574;-65
2023/12/08 00:24:35;;;;;;;0.80;0.80;;;;;;;5.24;100.00;99440.56;5072806;28;20762;-65
2023/12/08 00:27:02;;;;;;;0.80;0.80;;;;;;;5.16;100.00;99434.72;5072652;28;20207;-65
2023/12/08 00:29:30;;;;;;;0.60;0.60;;;;;;;5.24;100.00;99440.56;5072737;28;20252;-65
2023/12/08 00:31:57;;;;;;;0.53;0.53;;;;;;;5.18;100.00;99434.69;5073815;28;20637;-66
2023/12/08 00:34:23;;;;;;;0.80;0.80;;;;;;;5.18;100.00;99442.31;5076300;28;20254;-64
2023/12/08 00:36:50;;;;;;;0.70;0.70;;;;;;;5.17;100.00;99441.47;5072396;28;20232;-65
2023/12/08 00:39:18;;;;;;;1.33;0.60;;;;;;;5.18;100.00;99443.16;5072749;28;20621;-65
2023/12/08 00:41:44;;;;;;;0.60;0.60;;;;;;;5.17;100.00;99445.75;5072533;28;20647;-65
2023/12/08 00:44:12;;;;;;;0.60;0.60;;;;;;;5.19;100.00;99439.78;5073299;28;20196;-65
2023/12/08 00:46:40;;;;;;;0.70;0.70;;;;;;;5.20;100.00;99436.38;5073985;28;20188;-65
2023/12/08 00:49:07;;;;;;;0.70;0.70;;;;;;;5.18;100.00;99438.09;5072096;28;20200;-64
2023/12/08 00:51:34;;;;;;;0.50;0.50;;;;;;;5.16;100.00;99444.03;5072983;28;20196;-65
2023/12/08 00:54:00;;;;;;;0.50;0.50;;;;;;;5.20;100.00;99450.78;5074543;28;20200;-65
2023/12/08 00:56:28;;;;;;;0.60;0.60;;;;;;;5.21;100.00;99450.75;5072245;28;20569;-65
2023/12/08 00:58:54;;;;;;;0.70;0.70;;;;;;;5.18;100.00;99458.41;5072252;28;20196;-65
2023/12/08 01:01:21;;;;;;;0.70;0.70;;;;;;;5.20;100.00;99454.16;5072002;28;20200;-65
2023/12/08 01:03:49;;;;;;;0.87;0.87;;;;;;;5.20;100.00;99451.59;5072178;28;20208;-64
2023/12/08 01:06:16;;;;;;;0.70;0.70;;;;;;;5.20;100.00;99450.78;5073877;28;20241;-65
2023/12/08 01:08:43;;;;;;;0.70;0.70;;;;;;;5.19;100.00;99452.50;5071933;28;20199;-65
2023/12/08 01:11:10;;;;;;;0.80;0.80;;;;;;;5.24;100.00;99453.28;5071943;28;20664;-65
2023/12/08 01:13:37;;;;;;;0.60;0.60;;;;;;;5.24;100.00;99443.13;5071846;28;20195;-65
2023/12/08 01:16:06;;;;;;;0.93;0.93;;;;;;;5.24;100.00;99445.66;5075812;28;20303;-65
2023/12/08 01:18:33;;;;;;;0.60;0.60;;;;;;;5.22;100.00;99452.47;5078783;28;20656;-65
2023/12/08 01:21:01;;;;;;;0.73;0.73;;;;;;;5.23;100.00;99446.50;5074913;28;20200;-65
2023/12/08 01:23:28;;;;;;;0.60;0.60;;;;;;;5.28;100.00;99449.88;5071253;28;20195;-65
2023/12/08 01:25:54;;;;;;;0.70;0.70;;;;;;;5.28;100.00;99459.19;5072413;28;20642;-65
2023/12/08 01:28:20;;;;;;;0.70;0.70;;;;;;;5.29;100.00;99455.78;5070533;28;20196;-65
2023/12/08 01:30:47;;;;;;;3.23;1.13;;;;;;;5.30;100.00;99453.22;5071211;28;20200;-64
2023/12/08 01:33:14;;;;;;;0.77;0.77;;;;;;;5.30;100.00;99447.28;5071483;28;20253;-65
2023/12/08 01:35:40;;;;;;;0.80;0.80;;;;;;;5.28;100.00;99449.88;5071832;28;20246;-64
2023/12/08 01:38:08;;;;;;;0.60;0.60;;;;;;;5.33;100.00;99446.44;5071482;28;20311;-65
2023/12/08 01:40:39;;;;;;;0.50;0.50;;;;;;;5.35;100.00;99449.81;5071054;28;20196;-65
2023/12/08 01:43:10;;;;;;;0.90;0.90;;;;;;;5.34;100.00;99440.50;5071185;28;20208;-65
2023/12/08 01:45:37;;;;;;;0.93;0.93;;;;;;;5.33;100.00;99438.81;5072089;28;20261;-65
2023/12/08 01:48:05;;;;;;;0.70;0.70;;;;;;;5.32;100.00;99439.66;5074889;28;20246;-65
2023/12/08 01:50:32;;;;;;;0.60;0.60;;;;;;;5.34;100.00;99448.13;5071124;28;20672;-65
2023/12/08 01:52:59;;;;;;;1.00;1.00;;;;;;;5.28;100.00;99444.78;5071060;28;20204;-65
2023/12/08 01:55:27;;;;;;;1.13;1.13;;;;;;;5.34;100.00;99443.03;5070885;28;20660;-65
2023/12/08 01:57:54;;;;;;;0.50;0.50;;;;;;;5.35;100.00;99444.72;5071561;28;20257;-65
2023/12/08 02:00:21;;;;;;;0.50;0.50;;;;;;;5.36;100.00;99448.97;5074198;28;20352;-65
2023/12/08 02:02:48;;;;;;;0.90;0.90;;;;;;;5.36;100.00;99446.44;5070741;28;20192;-65
2023/12/08 02:05:17;;;;;;;0.60;0.60;;;;;;;5.33;100.00;99446.44;5070975;28;20733;-65
2023/12/08 02:07:45;;;;;;;0.60;0.60;;;;;;;5.26;100.00;99443.97;5070613;28;20227;-66
2023/12/08 02:10:11;;;;;;;0.50;0.50;;;;;;;5.32;100.00;99449.84;5072227;28;20222;-65
2023/12/08 02:12:40;;;;;;;0.70;0.70;;;;;;;5.32;100.00;99445.59;5072637;28;20258;-65
2023/12/08 02:15:07;;;;;;;0.73;0.67;;;;;;;5.36;100.00;99436.25;5073861;28;20274;-65
2023/12/08 02:17:38;;;;;;;1.13;1.13;;;;;;;5.34;100.00;99443.88;5073559;28;20231;-66
2023/12/08 02:20:06;;;;;;;0.77;0.77;;;;;;;5.36;100.00;99441.34;5070542;28;20203;-65
2023/12/08 02:22:34;;;;;;;0.57;0.57;;;;;;;5.30;100.00;99443.06;5073104;28;20283;-65
2023/12/08 02:25:02;;;;;;;1.00;1.00;;;;;;;5.32;100.00;99454.91;5070206;28;20732;-65
2023/12/08 02:27:30;;;;;;;3.37;0.63;;;;;;;5.34;100.00;99458.28;5073670;28;20192;-65
2023/12/08 02:29:57;;;;;;;0.83;0.83;;;;;;;5.33;100.00;99456.63;5072597;28;20212;-66
2023/12/08 02:32:33;;;;;;;0.57;0.57;;;;;;;5.29;100.00;99456.66;5072679;28;20191;-65
2023/12/08 02:35:02;;;;;;;0.60;0.60;;;;;;;5.27;100.00;99458.34;5070917;28;20200;-66
2023/12/08 02:37:32;;;;;;;0.50;0.50;;;;;;;5.27;100.00;99463.41;5070494;28;20255;-65
2023/12/08 02:39:59;;;;;;;0.63;0.63;;;;;;;5.26;100.00;99454.13;5070186;28;20203;-65
2023/12/08 02:42:27;;;;;;;0.70;0.70;;;;;;;5.26;100.00;99453.28;5070728;28;20200;-65
2023/12/08 02:44:54;;;;;;;1.10;1.10;;;;;;;5.28;100.00;99460.03;5071758;28;20273;-66
2023/12/08 02:47:21;;;;;;;0.70;0.70;;;;;;;5.26;100.00;99461.75;5070993;28;20196;-65
2023/12/08 02:49:47;;;;;;;0.90;0.90;;;;;;;5.29;100.00;99459.19;5070299;28;20322;-66
2023/12/08 02:52:14;;;;;;;1.23;1.17;;;;;;;5.25;100.00;99451.59;5070200;28;20721;-65
2023/12/08 02:54:41;;;;;;;0.60;0.60;;;;;;;5.21;100.00;99453.31;5071099;28;20196;-65
2023/12/08 02:57:07;;;;;;;0.80;0.80;;;;;;;5.21;100.00;99457.53;5070305;28;20646;-65
2023/12/08 02:59:35;;;;;;;0.90;0.90;;;;;;;5.17;100.00;99456.72;5070460;28;20203;-66
2023/12/08 03:02:02;;;;;;;1.77;1.67;;;;;;;5.19;100.00;99460.13;5070241;28;20641;-65
2023/12/08 03:04:29;;;;;;;0.50;0.50;;;;;;;5.19;100.00;99464.34;5070266;28;20196;-65
2023/12/08 03:06:56;;;;;;;0.77;0.77;;;;;;;5.23;100.00;99456.66;5071412;28;20192;-66
2023/12/08 03:09:22;;;;;;;0.87;0.87;;;;;;;5.20;100.00;99455.88;5070411;28;20275;-65
2023/12/08 03:11:49;;;;;;;1.20;1.20;;;;;;;5.20;100.00;99460.97;5071289;28;20200;-65
2023/12/08 03:14:16;;;;;;;1.10;1.10;;;;;;;5.20;100.00;99455.88;5071392;28;20199;-66
2023/12/08 03:16:46;;;;;;;1.00;1.00;;;;;;;5.18;100.00;99463.50;5071082;28;20272;-65
2023/12/08 03:19:12;;;;;;;0.93;0.93;;;;;;;5.19;100.00;99465.19;5073332;28;20219;-65
2023/12/08 03:21:39;;;;;;;0.70;0.70;;;;;;;5.16;100.00;99460.13;5070288;28;20269;-65
2023/12/08 03:24:06;;;;;;;0.70;0.70;;;;;;;5.19;100.00;99465.19;5067365;28;20199;-67
2023/12/08 03:26:33;;;;;;;0.83;0.83;;;;;;;5.17;100.00;99466.88;5069680;28;20246;-65
2023/12/08 03:29:00;;;;;;;1.03;1.03;;;;;;;5.20;100.00;99471.13;5070236;28;20200;-65
2023/12/08 03:31:29;;;;;;;1.10;1.10;;;;;;;5.20;100.00;99471.94;5070860;28;20204;-65
2023/12/08 03:33:57;;;;;;;1.00;1.00;;;;;;;5.23;100.00;99471.91;5069936;28;20208;-65
2023/12/08 03:36:23;;;;;;;0.80;0.80;;;;;;;5.23;100.00;99466.84;5069825;28;20281;-66
2023/12/08 03:38:50;;;;;;;0.70;0.70;;;;;;;5.24;100.00;99463.44;5070694;28;20843;-65
2023/12/08 03:41:17;;;;;;;1.17;1.17;;;;;;;5.23;100.00;99466.84;5072148;28;20565;-65
2023/12/08 03:43:44;;;;;;;1.70;1.03;;;;;;;5.22;100.00;99460.09;5071819;28;20271;-65
2023/12/08 03:46:11;;;;;;;0.80;0.80;;;;;;;5.21;100.00;99462.63;5069775;28;20624;-67
2023/12/08 03:48:38;;;;;;;0.67;0.67;;;;;;;5.22;100.00;99465.16;5069663;28;20192;-65
2023/12/08 03:51:07;;;;;;;0.60;0.60;;;;;;;5.23;100.00;99461.75;5070952;28;20196;-65
2023/12/08 03:53:34;;;;;;;1.50;0.80;;;;;;;5.06;100.00;99433.09;5073232;28;20200;-66
2023/12/08 03:56:00;;;;;;;0.90;0.90;;;;;;;5.18;100.00;99458.41;5073780;28;20196;-65
2023/12/08 03:58:28;;;;;;;0.97;0.97;;;;;;;5.24;100.00;99458.38;5074676;28;20628;-66
2023/12/08 04:00:54;;;;;;;1.00;1.00;;;;;;;5.24;100.00;99458.38;5072172;28;20273;-65
2023/12/08 04:03:22;;;;;;;0.97;0.97;;;;;;;5.22;100.00;99449.91;5072954;28;20195;-65
2023/12/08 04:05:48;;;;;;;1.00;1.00;;;;;;;5.22;100.00;99449.91;5073173;28;20206;-65
2023/12/08 04:08:16;;;;;;;1.53;1.53;;;;;;;5.25;100.00;99454.13;5074438;28;20729;-66
2023/12/08 04:10:43;;;;;;;0.70;0.70;;;;;;;5.24;100.00;99453.28;5072783;28;20253;-65
2023/12/08 04:13:10;;;;;;;1.00;1.00;;;;;;;5.26;100.00;99466.00;5074609;28;20200;-65
2023/12/08 04:15:36;;;;;;;0.83;0.83;;;;;;;5.25;100.00;99460.06;5077204;28;20254;-66
2023/12/08 04:18:03;;;;;;;0.53;0.53;;;;;;;5.25;100.00;99454.97;5073097;28;20281;-65
2023/12/08 04:20:30;;;;;;;1.50;1.50;;;;;;;5.27;100.00;99447.31;5074107;28;20200;-65
2023/12/08 04:22:57;;;;;;;0.80;0.80;;;;;;;5.28;100.00;99449.03;5072728;28;20196;-66
2023/12/08 04:25:25;;;;;;;0.50;0.50;;;;;;;5.24;100.00;99447.34;5068866;28;20200;-65
2023/12/08 04:27:51;;;;;;;0.70;0.70;;;;;;;5.25;100.00;99449.88;5072985;28;20249;-66
2023/12/08 04:30:18;;;;;;;1.23;1.23;;;;;;;5.25;100.00;99452.44;5073139;28;20622;-65
2023/12/08 04:32:45;;;;;;;1.53;1.53;;;;;;;5.24;100.00;99458.38;5080542;28;20199;-65
2023/12/08 04:35:12;;;;;;;0.90;0.90;;;;;;;5.26;100.00;99454.13;5074050;28;20254;-65
2023/12/08 04:37:38;;;;;;;0.70;0.70;;;;;;;5.24;100.00;99450.75;5072193;28;20349;-65
2023/12/08 04:40:06;;;;;;;1.10;1.10;;;;;;;5.26;100.00;99451.59;5072490;28;20195;-65
2023/12/08 04:42:36;;;;;;;1.23;1.23;;;;;;;5.33;100.00;99462.56;5073099;28;20200;-65
2023/12/08 04:45:03;;;;;;;1.53;0.80;;;;;;;5.29;100.00;99455.78;5075283;28;20253;-65
2023/12/08 04:47:30;;;;;;;0.60;0.60;;;;;;;5.33;100.00;99461.69;5072469;28;20249;-65
2023/12/08 04:49:56;;;;;;;0.73;0.73;;;;;;;5.29;100.00;99461.72;5072529;28;20200;-66
2023/12/08 04:52:23;;;;;;;1.53;1.40;;;;;;;5.28;100.00;99460.03;5072170;28;20196;-65
2023/12/08 04:54:50;;;;;;;0.80;0.80;;;;;;;5.33;100.00;99462.56;5072653;28;20258;-65
2023/12/08 04:57:17;;;;;;;0.87;0.77;;;;;;;5.32;100.00;99465.94;5074656;28;20220;-65
2023/12/08 04:59:45;;;;;;;0.90;0.90;;;;;;;5.32;100.00;99465.09;5072288;28;20276;-65
2023/12/08 05:02:11;;;;;;;1.70;1.43;;;;;;;5.37;100.00;99474.34;5070119;28;20196;-65
2023/12/08 05:04:38;;;;;;;0.93;0.93;;;;;;;5.33;100.00;99472.72;5071869;28;20200;-65
2023/12/08 05:07:05;;;;;;;1.13;0.77;;;;;;;5.34;100.00;99465.91;5069801;28;20246;-65
2023/12/08 05:09:32;;;;;;;0.60;0.60;;;;;;;5.31;100.00;99461.69;5071527;28;20200;-65
2023/12/08 05:11:58;;;;;;;0.90;0.90;;;;;;;5.33;100.00;99469.31;5071305;28;20226;-65
2023/12/08 05:14:25;;;;;;;0.80;0.80;;;;;;;5.31;100.00;99461.69;5071950;28;20664;-66
2023/12/08 05:16:53;;;;;;;0.63;0.63;;;;;;;5.29;100.00;99461.72;5072337;28;20204;-65
2023/12/08 05:19:20;;;;;;;1.03;0.80;;;;;;;5.34;100.00;99478.63;5071845;28;20200;-65
2023/12/08 05:21:46;;;;;;;0.90;0.90;;;;;;;5.31;100.00;99482.03;5071762;28;20211;-65
2023/12/08 05:24:13;;;;;;;1.00;1.00;;;;;;;5.36;100.00;99482.00;5071866;28;20200;-65
2023/12/08 05:26:40;;;;;;;0.80;0.80;;;;;;;5.33;100.00;99482.88;5071433;28;20561;-65
2023/12/08 05:29:07;;;;;;;1.10;1.10;;;;;;;5.21;100.00;99463.47;5071480;28;20204;-65
2023/12/08 05:31:34;;;;;;;0.93;0.93;;;;;;;5.26;100.00;99484.63;5071902;28;20211;-66
2023/12/08 05:34:02;;;;;;;1.03;1.00;;;;;;;5.27;100.00;99483.75;5072077;28;20618;-66
2023/12/08 05:36:29;;;;;;;1.33;1.13;;;;;;;5.30;100.00;99480.34;5071554;28;20220;-65
2023/12/08 05:38:56;;;;;;;0.87;0.87;;;;;;;5.30;100.00;99491.34;5071229;28;20687;-65
2023/12/08 05:41:22;;;;;;;4.13;1.87;;;;;;;5.29;100.00;99487.16;5071553;28;20651;-66
2023/12/08 05:43:50;;;;;;;1.10;1.10;;;;;;;5.27;100.00;99478.66;5075273;28;20253;-65
2023/12/08 05:46:16;;;;;;;1.70;1.70;;;;;;;5.34;100.00;99491.31;5071990;28;20223;-65
2023/12/08 05:48:43;;;;;;;1.00;1.00;;;;;;;5.29;100.00;99489.69;5071121;28;20196;-65
2023/12/08 05:51:11;;;;;;;1.20;1.20;;;;;;;5.34;100.00;99498.94;5071062;28;20200;-65
2023/12/08 05:53:38;;;;;;;0.70;0.70;;;;;;;5.35;100.00;99495.56;5071037;28;20630;-65
2023/12/08 05:56:05;;;;;;;0.80;0.80;;;;;;;5.34;100.00;99494.72;5076711;28;20208;-65
2023/12/08 05:58:32;;;;;;;1.47;1.47;;;;;;;5.36;100.00;99489.63;5076390;28;20642;-65
2023/12/08 06:00:58;;;;;;;0.60;0.60;;;;;;;5.32;100.00;99495.59;5071541;28;20204;-66
2023/12/08 06:03:25;;;;;;;0.73;0.73;;;;;;;5.34;100.00;99499.78;5072516;28;20196;-65
2023/12/08 06:05:52;;;;;;;0.93;0.93;;;;;;;5.32;100.00;99495.59;5070513;28;20671;-65
2023/12/08 06:08:20;;;;;;;0.67;0.67;;;;;;;5.28;100.00;99500.69;5070537;28;20232;-66
2023/12/08 06:10:47;;;;;;;0.70;0.70;;;;;;;5.28;100.00;99494.75;5068506;28;20196;-65
2023/12/08 06:13:14;;;;;;;0.80;0.80;;;;;;;5.28;100.00;99504.94;5068485;28;20617;-65
2023/12/08 06:15:41;;;;;;;1.00;1.00;;;;;;;5.25;100.00;99510.03;5063269;28;20736;-65
2023/12/08 06:18:07;;;;;;;1.33;1.33;;;;;;;5.27;100.00;99509.16;5070314;28;20273;-65
2023/12/08 06:20:34;;;;;;;1.03;1.03;;;;;;;5.28;100.00;99510.88;5069756;28;20200;-65
2023/12/08 06:23:01;;;;;;;2.20;1.27;;;;;;;5.28;100.00;99515.09;5072114;28;20618;-65
2023/12/08 06:25:29;;;;;;;2.10;1.53;;;;;;;5.25;100.00;99515.97;5070399;28;20687;-65
2023/12/08 06:27:55;;;;;;;2.00;1.93;;;;;;;5.34;100.00;99517.59;5073299;28;20329;-65
2023/12/08 06:30:22;;;;;;;1.13;0.83;;;;;;;5.35;100.00;99523.53;5065621;28;20673;-65
2023/12/08 06:32:49;;;;;;;0.80;0.80;;;;;;;5.36;100.00;99532.84;5069659;28;20216;-64
2023/12/08 06:35:16;;;;;;;0.80;0.80;;;;;;;5.38;100.00;99536.22;5064845;28;20760;-66
2023/12/08 06:37:43;;;;;;;0.73;0.73;;;;;;;5.36;100.00;99545.56;5066114;28;20228;-65
2023/12/08 06:40:11;;;;;;;0.73;0.73;;;;;;;5.41;100.00;99539.56;5065358;28;20705;-65
2023/12/08 06:42:39;;;;;;;1.23;1.23;;;;;;;5.46;100.00;99544.63;5065603;28;20236;-66
2023/12/08 06:45:08;;;;;;;2.00;1.70;;;;;;;5.46;100.00;99537.00;5066243;28;20680;-65
2023/12/08 06:47:34;;;;;;;1.03;1.03;;;;;;;5.43;100.00;99549.75;5065926;28;20209;-65
2023/12/08 06:50:01;;;;;;;1.33;1.17;;;;;;;5.51;100.00;99550.53;5068087;28;20261;-66
2023/12/08 06:52:28;;;;;;;0.90;0.90;;;;;;;5.51;100.00;99545.44;5067923;28;20223;-65
2023/12/08 06:54:55;;;;;;;1.70;1.10;;;;;;;5.52;100.00;99550.53;5067022;28;20257;-65
2023/12/08 06:57:21;;;;;;;1.00;1.00;;;;;;;5.55;100.00;99553.03;5066689;28;20658;-65
2023/12/08 06:59:49;;;;;;;0.97;0.70;;;;;;;5.55;100.00;99552.19;5064116;28;20209;-65
2023/12/08 07:02:16;;;;;;;0.73;0.73;;;;;;;5.57;100.00;99547.94;5065546;28;20265;-66
2023/12/08 07:04:43;;;;;;;1.10;1.10;;;;;;;5.58;100.00;99554.72;5063682;28;20568;-66
2023/12/08 07:07:09;;;;;;;1.30;1.30;;;;;;;5.57;100.00;99553.00;5065241;28;20207;-66
2023/12/08 07:09:36;;;;;;;0.73;0.73;;;;;;;5.57;100.00;99540.28;5064630;28;20203;-66
2023/12/08 07:12:04;;;;;;;1.50;1.50;;;;;;;5.63;100.00;99547.88;5064696;28;20208;-65
2023/12/08 07:14:30;;;;;;;1.53;1.50;;;;;;;5.61;100.00;99544.50;5064224;28;20196;-65
2023/12/08 07:16:58;;;;;;;1.00;1.00;;;;;;;5.62;100.00;99549.56;5066160;28;20208;-66
2023/12/08 07:19:25;;;;;;;2.00;1.70;;;;;;;5.63;100.00;99548.72;5066211;28;20297;-66
2023/12/08 07:21:52;;;;;;;0.77;0.77;;;;;;;5.59;100.00;99556.41;5067441;28;20200;-65
2023/12/08 07:24:18;;;;;;;0.90;0.90;;;;;;;5.63;100.00;99558.91;5067095;28;20661;-66
2023/12/08 07:26:45;;;;;;;0.93;0.93;;;;;;;5.63;100.00;99550.41;5067298;28;20269;-65
2023/12/08 07:29:12;;;;;;;1.27;1.17;;;;;;;5.59;100.00;99557.22;5070102;28;20250;-65
2023/12/08 07:31:39;;;;;;;1.47;1.47;;;;;;;5.64;100.00;99569.91;5070448;28;20265;-63
2023/12/08 07:34:07;;;;;;;0.53;0.53;;;;;;;5.62;100.00;99562.28;5071335;28;20204;-66
2023/12/08 07:36:33;;;;;;;0.87;0.87;;;;;;;5.60;100.00;99563.16;5070681;28;20381;-66
2023/12/08 07:39:00;;;;;;;1.17;1.17;;;;;;;5.63;100.00;99563.13;5070579;28;20274;-65
2023/12/08 07:41:27;;;;;;;0.70;0.70;;;;;;;5.65;100.00;99561.44;5069370;28;20239;-66
2023/12/08 07:43:55;;;;;;;1.27;1.00;;;;;;;5.66;100.00;99568.19;5070169;28;20208;-65
2023/12/08 07:46:23;;;;;;;1.60;1.60;;;;;;;5.64;100.00;99569.91;5070034;28;20614;-66
2023/12/08 07:48:50;;;;;;;6.03;1.50;;;;;;;5.60;100.00;99553.00;5070497;28;20291;-66
2023/12/08 07:51:18;;;;;;;0.70;0.70;;;;;;;5.67;100.00;99570.75;5068861;28;20258;-66
2023/12/08 07:53:45;;;;;;;0.90;0.90;;;;;;;5.71;100.00;99567.31;5069575;28;20233;-65
2023/12/08 07:56:13;;;;;;;1.17;1.13;;;;;;;5.66;100.00;99563.09;5071671;28;20249;-66
2023/12/08 07:58:39;;;;;;;1.20;1.20;;;;;;;5.71;100.00;99566.47;5071129;28;20591;-66
2023/12/08 08:01:07;;;;;;;1.10;1.10;;;;;;;5.65;100.00;99561.44;5070100;28;20617;-66
2023/12/08 08:03:33;;;;;;;1.03;1.03;;;;;;;5.70;100.00;99574.94;5069787;28;20200;-67
2023/12/08 08:06:00;;;;;;;1.67;1.67;;;;;;;5.75;100.00;99579.13;5069317;28;20207;-65
2023/12/08 08:08:28;;;;;;;1.07;1.07;;;;;;;5.78;100.00;99584.19;5070126;28;20262;-66
2023/12/08 08:10:55;;;;;;;1.27;0.87;;;;;;;5.80;100.00;99581.66;5066728;28;20196;-66
2023/12/08 08:13:22;;;;;;;0.70;0.70;;;;;;;5.82;100.00;99588.41;5066025;28;20207;-65
2023/12/08 08:15:49;;;;;;;3.07;1.70;;;;;;;5.86;100.00;99589.28;5071347;28;20200;-65
2023/12/08 08:18:16;;;;;;;1.37;1.37;;;;;;;5.90;100.00;99593.47;5067701;28;20293;-66
2023/12/08 08:20:42;;;;;;;2.13;1.77;;;;;;;5.90;100.00;99592.63;5070459;28;20257;-66
2023/12/08 08:23:09;;;;;;;0.90;0.90;;;;;;;5.96;100.00;99598.50;5072722;28;20200;-66
2023/12/08 08:25:37;;;;;;;1.40;1.40;;;;;;;5.97;100.00;99597.66;5068384;28;20200;-65
2023/12/08 08:28:04;;;;;;;1.23;1.23;;;;;;;6.03;100.00;99595.06;5070937;28;20196;-65
2023/12/08 08:30:32;;;;;;;2.70;2.20;;;;;;;6.02;100.00;99597.59;5071816;28;20732;-65
2023/12/08 08:32:59;;;;;;;0.97;0.97;;;;;;;6.06;100.00;99604.38;5070947;28;20686;-66
2023/12/08 08:35:26;;;;;;;2.00;1.93;;;;;;;6.08;100.00;99600.09;5069251;28;20277;-65
2023/12/08 08:37:52;;;;;;;1.20;1.20;;;;;;;6.11;100.00;99603.47;5070643;28;20231;-65
2023/12/08 08:40:20;;;;;;;1.00;1.00;;;;;;;6.12;100.00;99594.97;5068396;28;20775;-65
2023/12/08 08:42:48;;;;;;;2.73;1.23;;;;;;;6.12;100.00;99597.53;5070356;28;20204;-65
2023/12/08 08:45:15;;;;;;;1.33;1.33;;;;;;;6.19;100.00;99599.16;5069305;28;20200;-65
2023/12/08 08:47:41;;;;;;;1.20;1.10;;;;;;;6.20;100.00;99593.19;5070755;28;20196;-66
2023/12/08 08:50:09;;;;;;;1.10;1.10;;;;;;;6.20;100.00;99598.28;5070414;28;20203;-65
2023/12/08 08:52:36;;;;;;;5.13;1.77;;;;;;;6.20;100.00;99590.66;5070478;28;20200;-65
2023/12/08 08:55:04;;;;;;;0.93;0.93;;;;;;;6.20;100.00;99597.47;5067831;28;20235;-65
2023/12/08 08:57:30;;;;;;;1.07;0.90;;;;;;;6.12;100.00;99600.06;5066751;28;20291;-66
2023/12/08 08:59:59;;;;;;;1.23;1.23;;;;;;;6.06;100.00;99605.22;5066784;28;20217;-65
2023/12/08 09:02:25;;;;;;;0.87;0.87;;;;;;;6.01;100.00;99594.22;5071703;28;20211;-65
2023/12/08 09:04:52;;;;;;;0.70;0.70;;;;;;;5.96;100.00;99593.44;5067554;28;20254;-65
2023/12/08 09:07:19;;;;;;;0.70;0.70;;;;;;;5.94;100.00;99597.69;5069586;28;20741;-65
2023/12/08 09:09:46;;;;;;;2.03;1.00;;;;;;;5.95;100.00;99581.56;5067887;28;20208;-66
2023/12/08 09:12:13;;;;;;;0.87;0.87;;;;;;;5.95;100.00;99589.19;5070674;28;20257;-66
2023/12/08 09:14:39;;;;;;;1.83;1.73;;;;;;;5.84;100.00;99578.25;5069196;28;20626;-65
2023/12/08 09:17:07;;;;;;;1.10;1.10;;;;;;;5.93;100.00;99583.28;5068885;28;20252;-66
2023/12/08 09:19:35;;;;;;;1.33;1.07;;;;;;;5.95;100.00;99580.69;5067299;28;20227;-65
2023/12/08 09:22:01;;;;;;;0.63;0.63;;;;;;;5.95;100.00;99576.47;5067250;28;20651;-66
2023/12/08 09:24:28;;;;;;;0.80;0.80;;;;;;;5.86;100.00;99551.09;5068499;28;20660;-65
2023/12/08 09:26:55;;;;;;;1.30;1.23;;;;;;;6.03;100.00;99574.72;5069399;28;20265;-66
2023/12/08 09:29:22;;;;;;;0.73;0.73;;;;;;;6.02;100.00;99578.09;5069724;28;20329;-66
2023/12/08 09:31:49;;;;;;;1.17;1.03;;;;;;;5.99;100.00;99567.94;5071465;28;20290;-65
2023/12/08 09:34:17;;;;;;;0.57;0.57;;;;;;;5.99;100.00;99567.94;5067203;28;20277;-66
2023/12/08 09:36:44;;;;;;;0.97;0.97;;;;;;;5.99;100.00;99562.88;5068228;28;20780;-65
2023/12/08 09:39:11;;;;;;;1.03;0.97;;;;;;;5.95;100.00;99553.56;5066513;28;20212;-66
2023/12/08 09:41:40;;;;;;;0.67;0.67;;;;;;;6.00;100.00;99549.28;5051297;28;20200;-66
2023/12/08 09:44:12;;;;;;;3.27;1.37;;;;;;;5.98;100.00;99556.06;5066764;28;20208;-66
2023/12/08 09:46:40;;;;;;;1.47;1.47;;;;;;;5.98;100.00;99545.91;5069960;28;20693;-66
2023/12/08 09:49:12;;;;;;;0.97;0.97;;;;;;;5.97;100.00;99546.78;5067500;28;20663;-65
2023/12/08 09:51:41;;;;;;;2.10;0.60;;;;;;;5.95;100.00;99535.75;5069523;28;20630;-66
2023/12/08 09:54:09;;;;;;;0.73;0.73;;;;;;;5.96;100.00;99542.53;5066837;28;20208;-66
2023/12/08 09:56:36;;;;;;;0.73;0.73;;;;;;;5.98;100.00;99533.19;5066401;28;20212;-65
2023/12/08 09:59:04;;;;;;;2.57;1.13;;;;;;;5.93;100.00;99542.56;5064280;28;20337;-65
2023/12/08 10:01:31;;;;;;;0.90;0.90;;;;;;;5.97;100.00;99534.06;5064912;28;20200;-65
2023/12/08 10:03:58;;;;;;;1.60;1.50;;;;;;;6.00;100.00;99534.03;5063430;28;20264;-65
2023/12/08 10:06:28;;;;;;;0.57;0.57;;;;;;;5.91;100.00;99534.13;5063929;28;20208;-65
2023/12/08 10:08:57;;;;;;;0.87;0.87;;;;;;;5.92;100.00;99534.94;5062530;28;20197;-65
2023/12/08 10:11:24;;;;;;;2.97;0.83;;;;;;;5.88;100.00;99531.56;5062040;28;20204;-65
2023/12/08 10:13:52;;;;;;;0.50;0.50;;;;;;;5.82;100.00;99513.78;5062510;28;20637;-65
2023/12/08 10:16:19;;;;;;;0.77;0.77;;;;;;;5.92;100.00;99525.59;5059633;28;20232;-65
2023/12/08 10:18:45;;;;;;;1.90;1.00;;;;;;;5.81;100.00;99527.41;5061646;28;20228;-65
2023/12/08 10:21:16;;;;;;;1.00;0.90;;;;;;;5.87;100.00;99524.81;5062388;28;20208;-65
2023/12/08 10:23:44;;;;;;;0.70;0.70;;;;;;;5.85;100.00;99523.94;5061188;28;20207;-66
2023/12/08 10:26:13;;;;;;;1.00;1.00;;;;;;;5.88;100.00;99516.31;5069602;28;20196;-66
2023/12/08 10:28:40;;;;;;;0.70;0.70;;;;;;;5.90;100.00;99517.16;5069154;28;20199;-66
2023/12/08 10:31:07;;;;;;;3.83;1.43;;;;;;;5.75;100.00;99497.75;5069833;28;20238;-65
2023/12/08 10:33:34;;;;;;;1.07;1.07;;;;;;;5.91;100.00;99511.22;5065351;28;20196;-66
2023/12/08 10:36:01;;;;;;;0.70;0.70;;;;;;;5.90;100.00;99512.06;5066435;28;20266;-65
2023/12/08 10:38:28;;;;;;;1.27;1.03;;;;;;;5.76;100.00;99496.91;5067717;28;20786;-66
2023/12/08 10:40:55;;;;;;;0.93;0.93;;;;;;;5.91;100.00;99503.59;5065512;28;20204;-65
2023/12/08 10:43:25;;;;;;;1.10;1.10;;;;;;;5.94;100.00;99507.81;5064274;28;20208;-66
2023/12/08 10:45:52;;;;;;;2.90;1.00;;;;;;;5.89;100.00;99505.28;5067172;28;20227;-66
2023/12/08 10:48:20;;;;;;;1.10;1.10;;;;;;;5.91;100.00;99498.50;5063146;28;20291;-65
2023/12/08 10:50:48;;;;;;;1.20;1.20;;;;;;;5.94;100.00;99497.63;5064723;28;20723;-66
2023/12/08 10:53:16;;;;;;;0.93;0.93;;;;;;;5.96;100.00;99494.19;5066599;28;20210;-65
2023/12/08 10:55:42;;;;;;;1.00;1.00;;;;;;;5.98;100.00;99495.00;5069048;28;20257;-65
2023/12/08 10:58:14;;;;;;;1.70;0.97;;;;;;;5.99;100.00;99491.63;5066380;28;20672;-66
2023/12/08 11:00:43;;;;;;;1.37;1.03;;;;;;;5.95;100.00;99495.03;5069344;28;20306;-65
2023/12/08 11:03:12;;;;;;;0.93;0.93;;;;;;;5.99;100.00;99486.53;5069631;28;20201;-65
2023/12/08 11:05:45;;;;;;;0.97;0.73;;;;;;;6.07;100.00;99483.91;5072675;28;20196;-65
2023/12/08 11:08:12;;;;;;;3.13;1.97;;;;;;;6.13;100.00;99488.94;5076915;28;20676;-66
2023/12/08 11:10:42;;;;;;;2.00;1.40;;;;;;;6.16;100.00;99494.84;5078038;28;20643;-66
2023/12/08 11:13:18;;;;;;;2.53;1.70;;;;;;;6.23;100.00;99483.72;5073865;28;20200;-66
2023/12/08 11:15:59;;;;;;;1.67;1.47;;;;;;;6.22;100.00;99493.91;5072726;28;20208;-65
2023/12/08 11:18:29;;;;;;;1.83;1.17;;;;;;;6.21;100.00;99489.69;5070496;28;20264;-65
2023/12/08 11:20:56;;;;;;;2.37;2.27;;;;;;;6.17;100.00;99491.41;5073031;28;20303;-65
2023/12/08 11:23:24;;;;;;;0.70;0.70;;;;;;;6.20;100.00;99490.56;5074441;28;20687;-65
2023/12/08 11:25:59;;;;;;;5.73;1.57;;;;;;;6.22;100.00;99484.59;5074306;28;20208;-66
2023/12/08 11:28:31;;;;;;;0.83;0.83;;;;;;;6.20;100.00;99490.56;5069546;28;20199;-65
2023/12/08 11:31:07;;;;;;;0.73;0.73;;;;;;;6.11;100.00;99491.47;5052772;28;20262;-66
2023/12/08 11:33:38;;;;;;;0.93;0.93;;;;;;;6.09;100.00;99488.13;5068694;28;20207;-66